createdAt,value
2023-10-26T00:00:38.558Z,92.57
2023-10-26T00:01:38.892Z,92.47
2023-10-26T00:02:39.302Z,92.57
2023-10-26T00:03:39.595Z,92.47
2023-10-26T00:04:39.792Z,92.57
2023-10-26T00:05:40.177Z,92.68
2023-10-26T00:06:40.456Z,92.68
2023-10-26T00:07:40.773Z,92.68
2023-10-26T00:08:41.136Z,92.68
2023-10-26T00:09:41.507Z,92.68
2023-10-26T00:10:41.774Z,92.68
2023-10-26T00:11:41.997Z,92.68
2023-10-26T00:12:42.336Z,92.68
2023-10-26T00:13:42.683Z,92.68
2023-10-26T00:14:43.181Z,92.57
2023-10-26T00:15:43.296Z,92.57
2023-10-26T00:16:43.642Z,92.57
2023-10-26T00:17:43.998Z,92.57
2023-10-26T00:18:44.442Z,92.68
2023-10-26T00:19:44.660Z,92.57
2023-10-26T00:20:44.899Z,92.68
2023-10-26T00:21:45.148Z,92.57
2023-10-26T00:22:45.378Z,92.57
2023-10-26T00:23:45.597Z,92.47
2023-10-26T00:24:45.975Z,92.47
2023-10-26T00:25:53.893Z,92.47
2023-10-26T00:26:46.568Z,92.47
2023-10-26T00:27:50.845Z,92.57
2023-10-26T00:28:47.049Z,92.36
2023-10-26T00:29:47.344Z,92.36
2023-10-26T00:30:47.596Z,92.47
2023-10-26T00:31:47.857Z,92.47
2023-10-26T00:32:48.134Z,92.47
2023-10-26T00:33:48.480Z,92.57
2023-10-26T00:34:48.740Z,92.57
2023-10-26T00:35:49.088Z,92.68
2023-10-26T00:36:49.416Z,92.57
2023-10-26T00:37:49.786Z,92.57
2023-10-26T00:38:50.011Z,92.68
2023-10-26T00:39:50.313Z,92.68
2023-10-26T00:40:50.647Z,92.68
2023-10-26T00:41:51.013Z,92.68
2023-10-26T00:42:51.336Z,92.68
2023-10-26T00:43:51.551Z,92.68
2023-10-26T00:44:51.899Z,92.74
2023-10-26T00:45:52.224Z,92.74
2023-10-26T00:46:52.583Z,92.74
2023-10-26T00:47:52.899Z,92.63
2023-10-26T00:48:53.239Z,92.53
2023-10-26T00:49:53.370Z,92.53
2023-10-26T00:50:53.777Z,92.43
2023-10-26T00:51:53.970Z,92.32
2023-10-26T00:52:54.184Z,92.32
2023-10-26T00:53:54.545Z,92.32
2023-10-26T00:54:54.897Z,92.32
2023-10-26T00:55:55.132Z,92.43
2023-10-26T00:56:55.392Z,92.43
2023-10-26T00:57:55.706Z,92.32
2023-10-26T00:58:55.932Z,92.12
2023-10-26T00:59:56.324Z,92.12
2023-10-26T01:00:56.510Z,92.02
2023-10-26T01:01:56.907Z,92.02
2023-10-26T01:02:57.236Z,92.12
2023-10-26T01:03:57.430Z,92.12
2023-10-26T01:04:57.800Z,92.02
2023-10-26T01:05:58.068Z,92.12
2023-10-26T01:06:58.258Z,92.12
2023-10-26T01:07:58.505Z,92.02
2023-10-26T01:08:58.853Z,92.02
2023-10-26T01:09:59.185Z,91.91
2023-10-26T01:10:59.410Z,91.91
2023-10-26T01:11:59.731Z,91.91
2023-10-26T01:12:59.949Z,91.82
2023-10-26T01:14:00.191Z,91.71
2023-10-26T01:15:00.601Z,91.71
2023-10-26T01:16:00.897Z,91.82
2023-10-26T01:17:01.103Z,91.91
2023-10-26T01:18:01.500Z,91.91
2023-10-26T01:19:01.836Z,92.02
2023-10-26T01:20:02.089Z,92.02
2023-10-26T01:21:02.312Z,91.96
2023-10-26T01:22:02.624Z,92.06
2023-10-26T01:23:02.828Z,92.06
2023-10-26T01:24:03.219Z,92.16
2023-10-26T01:25:03.459Z,92.27
2023-10-26T01:26:03.673Z,92.22
2023-10-26T01:27:03.925Z,92.16
2023-10-26T01:28:04.250Z,92.16
2023-10-26T01:29:04.493Z,92.06
2023-10-26T01:30:04.728Z,92.16
2023-10-26T01:31:05.071Z,92.27
2023-10-26T01:32:05.320Z,92.27
2023-10-26T01:33:05.553Z,92.27
2023-10-26T01:34:05.891Z,92.36
2023-10-26T01:35:06.139Z,92.27
2023-10-26T01:36:06.508Z,92.27
2023-10-26T01:37:06.657Z,92.27
2023-10-26T01:38:06.989Z,92.36
2023-10-26T01:39:07.241Z,92.47
2023-10-26T01:40:07.451Z,92.57
2023-10-26T01:41:07.827Z,92.57
2023-10-26T01:42:08.030Z,92.68
2023-10-26T01:43:08.388Z,92.68
2023-10-26T01:44:08.629Z,92.78
2023-10-26T01:45:08.902Z,92.78
2023-10-26T01:46:09.079Z,92.78
2023-10-26T01:47:09.434Z,92.78
2023-10-26T01:48:09.846Z,92.88
2023-10-26T01:49:10.154Z,92.78
2023-10-26T01:50:10.354Z,92.78
2023-10-26T01:51:10.728Z,92.78
2023-10-26T01:52:11.102Z,92.78
2023-10-26T01:53:11.393Z,92.78
2023-10-26T01:54:12.940Z,92.88
2023-10-26T01:55:11.929Z,92.88
2023-10-26T01:56:12.265Z,92.88
2023-10-26T01:57:12.538Z,92.88
2023-10-26T01:58:12.883Z,92.88
2023-10-26T01:59:13.090Z,92.98
2023-10-26T02:00:13.438Z,92.98
2023-10-26T02:01:13.758Z,92.98
2023-10-26T02:02:14.132Z,92.98
2023-10-26T02:03:14.541Z,93.08
2023-10-26T02:04:14.818Z,93.08
2023-10-26T02:05:15.137Z,93.19
2023-10-26T02:06:15.532Z,93.19
2023-10-26T02:07:15.590Z,93.08
2023-10-26T02:08:15.934Z,93.19
2023-10-26T02:09:16.317Z,93.19
2023-10-26T02:10:16.627Z,93.19
2023-10-26T02:11:16.985Z,93.19
2023-10-26T02:12:17.284Z,93.04
2023-10-26T02:13:17.484Z,93.19
2023-10-26T02:14:17.836Z,93.19
2023-10-26T02:15:18.192Z,93.19
2023-10-26T02:16:18.551Z,93.19
2023-10-26T02:17:18.746Z,93.08
2023-10-26T02:18:19.208Z,93.08
2023-10-26T02:19:19.715Z,93.19
2023-10-26T02:20:19.708Z,93.19
2023-10-26T02:21:20.002Z,93.15
2023-10-26T02:22:20.226Z,93.08
2023-10-26T02:23:20.561Z,93.19
2023-10-26T02:24:20.929Z,93.19
2023-10-26T02:25:21.248Z,93.04
2023-10-26T02:26:21.461Z,92.98
2023-10-26T02:27:21.829Z,93.08
2023-10-26T02:28:22.343Z,93.08
2023-10-26T02:29:22.491Z,93.08
2023-10-26T02:30:22.879Z,93.08
2023-10-26T02:31:23.065Z,93.08
2023-10-26T02:32:23.427Z,93.19
2023-10-26T02:33:23.762Z,93.19
2023-10-26T02:34:24.111Z,93.15
2023-10-26T02:35:24.421Z,93.08
2023-10-26T02:36:24.798Z,93.19
2023-10-26T02:37:24.977Z,93.29
2023-10-26T02:38:25.341Z,93.15
2023-10-26T02:39:25.616Z,93.15
2023-10-26T02:40:25.809Z,93.19
2023-10-26T02:41:26.137Z,93.25
2023-10-26T02:42:26.521Z,93.15
2023-10-26T02:43:26.723Z,93.25
2023-10-26T02:44:27.057Z,93.25
2023-10-26T02:45:27.324Z,93.25
2023-10-26T02:46:27.620Z,93.15
2023-10-26T02:47:27.853Z,93.04
2023-10-26T02:48:28.208Z,93.08
2023-10-26T02:49:28.540Z,93.15
2023-10-26T02:50:28.783Z,93.15
2023-10-26T02:51:29.015Z,93.15
2023-10-26T02:52:29.242Z,93.04
2023-10-26T02:53:29.504Z,93.15
2023-10-26T02:54:29.830Z,93.04
2023-10-26T02:55:30.022Z,93.04
2023-10-26T02:56:30.343Z,93.04
2023-10-26T02:57:30.668Z,92.88
2023-10-26T02:58:31.027Z,92.78
2023-10-26T02:59:31.235Z,92.88
2023-10-26T03:00:31.657Z,92.88
2023-10-26T03:01:31.860Z,92.88
2023-10-26T03:02:32.256Z,92.88
2023-10-26T03:03:32.557Z,92.88
2023-10-26T03:04:32.794Z,92.88
2023-10-26T03:05:33.166Z,92.93
2023-10-26T03:06:33.530Z,93.02
2023-10-26T03:07:33.737Z,93.23
2023-10-26T03:08:33.969Z,93.33
2023-10-26T03:09:34.403Z,93.44
2023-10-26T03:10:34.643Z,93.54
2023-10-26T03:11:35.013Z,93.54
2023-10-26T03:12:35.253Z,93.64
2023-10-26T03:13:35.478Z,93.64
2023-10-26T03:14:35.821Z,93.64
2023-10-26T03:15:36.186Z,93.64
2023-10-26T03:16:38.508Z,93.64
2023-10-26T03:17:36.747Z,93.64
2023-10-26T03:18:37.111Z,93.64
2023-10-26T03:19:37.289Z,93.74
2023-10-26T03:20:37.625Z,93.85
2023-10-26T03:21:37.991Z,93.85
2023-10-26T03:22:38.280Z,93.74
2023-10-26T03:23:38.483Z,93.74
2023-10-26T03:24:38.818Z,93.74
2023-10-26T03:25:39.176Z,93.74
2023-10-26T03:26:39.447Z,93.74
2023-10-26T03:27:39.644Z,93.85
2023-10-26T03:28:39.982Z,93.85
2023-10-26T03:29:40.308Z,93.80
2023-10-26T03:30:40.658Z,93.80
2023-10-26T03:31:40.905Z,93.80
2023-10-26T03:32:41.141Z,93.80
2023-10-26T03:33:41.537Z,93.80
2023-10-26T03:34:41.961Z,93.70
2023-10-26T03:35:42.071Z,93.70
2023-10-26T03:36:42.419Z,93.70
2023-10-26T03:37:42.760Z,93.80
2023-10-26T03:38:43.091Z,93.85
2023-10-26T03:39:43.434Z,93.80
2023-10-26T03:40:43.800Z,93.80
2023-10-26T03:41:44.002Z,93.90
2023-10-26T03:42:44.321Z,93.80
2023-10-26T03:43:44.647Z,93.90
2023-10-26T03:44:45.448Z,93.90
2023-10-26T03:45:45.302Z,93.80
2023-10-26T03:46:45.516Z,93.80
2023-10-26T03:47:45.901Z,93.80
2023-10-26T03:48:46.116Z,93.90
2023-10-26T03:49:46.473Z,93.90
2023-10-26T03:50:46.672Z,93.90
2023-10-26T03:51:47.052Z,94.01
2023-10-26T03:52:47.338Z,94.11
2023-10-26T03:53:47.694Z,94.11
2023-10-26T03:54:48.043Z,94.11
2023-10-26T03:55:48.248Z,94.21
2023-10-26T03:56:48.582Z,94.21
2023-10-26T03:57:48.923Z,94.21
2023-10-26T03:58:49.275Z,94.32
2023-10-26T03:59:49.499Z,94.32
2023-10-26T04:00:49.708Z,94.21
2023-10-26T04:01:50.139Z,94.32
2023-10-26T04:02:50.381Z,94.32
2023-10-26T04:03:50.588Z,94.42
2023-10-26T04:04:50.786Z,94.42
2023-10-26T04:05:51.121Z,94.42
2023-10-26T04:06:51.490Z,94.52
2023-10-26T04:07:51.791Z,94.52
2023-10-26T04:08:52.173Z,94.52
2023-10-26T04:09:52.353Z,94.52
2023-10-26T04:10:52.687Z,94.62
2023-10-26T04:11:53.118Z,94.52
2023-10-26T04:12:53.313Z,94.62
2023-10-26T04:13:53.675Z,94.62
2023-10-26T04:14:53.961Z,94.62
2023-10-26T04:15:54.229Z,94.62
2023-10-26T04:16:54.424Z,94.62
2023-10-26T04:17:54.826Z,94.62
2023-10-26T04:18:55.084Z,94.62
2023-10-26T04:19:55.257Z,94.62
2023-10-26T04:20:55.674Z,94.58
2023-10-26T04:21:55.864Z,94.52
2023-10-26T04:22:56.216Z,94.42
2023-10-26T04:23:56.471Z,94.42
2023-10-26T04:24:56.789Z,94.42
2023-10-26T04:25:57.044Z,94.42
2023-10-26T04:26:57.291Z,94.42
2023-10-26T04:27:57.502Z,94.52
2023-10-26T04:28:57.890Z,94.48
2023-10-26T04:29:58.215Z,94.48
2023-10-26T04:30:58.412Z,94.48
2023-10-26T04:31:58.870Z,94.48
2023-10-26T04:32:59.109Z,94.48
2023-10-26T04:33:59.310Z,94.37
2023-10-26T04:34:59.652Z,94.48
2023-10-26T04:35:59.993Z,94.48
2023-10-26T04:37:00.328Z,94.48
2023-10-26T04:38:00.544Z,94.48
2023-10-26T04:39:00.907Z,94.48
2023-10-26T04:40:02.431Z,94.58
2023-10-26T04:41:01.441Z,94.48
2023-10-26T04:42:01.896Z,94.48
2023-10-26T04:43:02.046Z,94.48
2023-10-26T04:44:02.413Z,94.37
2023-10-26T04:45:02.677Z,94.37
2023-10-26T04:46:02.897Z,94.37
2023-10-26T04:47:03.115Z,94.37
2023-10-26T04:48:03.396Z,94.37
2023-10-26T04:49:03.618Z,94.48
2023-10-26T04:50:03.841Z,94.48
2023-10-26T04:51:04.298Z,94.48
2023-10-26T04:52:04.497Z,94.48
2023-10-26T04:53:04.830Z,94.58
2023-10-26T04:54:05.185Z,94.58
2023-10-26T04:55:05.495Z,94.58
2023-10-26T04:56:05.860Z,94.58
2023-10-26T04:57:06.114Z,94.68
2023-10-26T04:58:06.424Z,94.68
2023-10-26T04:59:06.762Z,94.68
2023-10-26T05:00:07.141Z,94.68
2023-10-26T05:01:07.392Z,94.68
2023-10-26T05:02:07.581Z,94.78
2023-10-26T05:03:07.978Z,94.78
2023-10-26T05:04:08.202Z,94.78
2023-10-26T05:05:08.560Z,94.78
2023-10-26T05:06:08.919Z,94.89
2023-10-26T05:07:09.152Z,94.78
2023-10-26T05:08:09.387Z,94.78
2023-10-26T05:09:09.750Z,94.89
2023-10-26T05:10:10.078Z,94.89
2023-10-26T05:11:10.269Z,94.89
2023-10-26T05:12:10.668Z,94.89
2023-10-26T05:13:10.831Z,94.89
2023-10-26T05:14:11.180Z,94.99
2023-10-26T05:15:11.533Z,94.99
2023-10-26T05:16:11.868Z,94.89
2023-10-26T05:17:12.166Z,94.89
2023-10-26T05:18:12.467Z,94.99
2023-10-26T05:19:12.719Z,94.99
2023-10-26T05:20:12.958Z,94.89
2023-10-26T05:21:13.208Z,94.89
2023-10-26T05:22:13.390Z,94.99
2023-10-26T05:23:13.716Z,94.99
2023-10-26T05:24:14.114Z,94.99
2023-10-26T05:25:14.304Z,94.99
2023-10-26T05:26:14.713Z,94.99
2023-10-26T05:27:14.970Z,95.09
2023-10-26T05:28:15.175Z,95.09
2023-10-26T05:29:15.424Z,95.09
2023-10-26T05:30:15.695Z,95.09
2023-10-26T05:31:16.090Z,95.09
2023-10-26T05:32:16.134Z,95.09
2023-10-26T05:33:16.779Z,95.09
2023-10-26T05:34:16.659Z,95.09
2023-10-26T05:35:16.909Z,95.20
2023-10-26T05:36:17.211Z,95.20
2023-10-26T05:37:17.419Z,95.29
2023-10-26T05:38:17.660Z,95.29
2023-10-26T05:39:17.933Z,95.29
2023-10-26T05:40:18.165Z,95.29
2023-10-26T05:41:18.393Z,95.29
2023-10-26T05:42:18.678Z,95.29
2023-10-26T05:43:18.893Z,95.29
2023-10-26T05:44:19.120Z,95.29
2023-10-26T05:45:19.453Z,95.29
2023-10-26T05:46:19.609Z,95.29
2023-10-26T05:47:22.075Z,95.29
2023-10-26T05:48:20.316Z,95.40
2023-10-26T05:49:20.503Z,95.40
2023-10-26T05:50:20.721Z,95.40
2023-10-26T05:51:21.137Z,95.40
2023-10-26T05:52:21.407Z,95.40
2023-10-26T05:53:21.690Z,95.29
2023-10-26T05:54:22.084Z,95.36
2023-10-26T05:55:22.334Z,95.40
2023-10-26T05:56:22.580Z,95.36
2023-10-26T05:57:22.882Z,95.46
2023-10-26T05:58:23.182Z,95.46
2023-10-26T05:59:23.426Z,95.36
2023-10-26T06:00:23.658Z,95.36
2023-10-26T06:01:23.971Z,95.36
2023-10-26T06:02:25.262Z,95.36
2023-10-26T06:03:24.500Z,95.36
2023-10-26T06:04:24.719Z,95.36
2023-10-26T06:05:25.088Z,95.36
2023-10-26T06:06:25.344Z,95.36
2023-10-26T06:07:25.475Z,95.36
2023-10-26T06:08:25.769Z,95.46
2023-10-26T06:09:26.029Z,95.46
2023-10-26T06:10:26.304Z,95.46
2023-10-26T06:11:26.548Z,95.46
2023-10-26T06:12:26.878Z,95.46
2023-10-26T06:13:27.156Z,95.46
2023-10-26T06:14:27.376Z,95.46
2023-10-26T06:15:27.716Z,95.56
2023-10-26T06:16:28.007Z,95.56
2023-10-26T06:17:28.289Z,95.56
2023-10-26T06:18:28.573Z,95.56
2023-10-26T06:19:28.790Z,95.56
2023-10-26T06:20:29.338Z,95.56
2023-10-26T06:21:29.309Z,95.56
2023-10-26T06:22:29.521Z,95.56
2023-10-26T06:23:29.784Z,95.46
2023-10-26T06:24:30.084Z,95.46
2023-10-26T06:25:30.328Z,95.56
2023-10-26T06:26:30.581Z,95.66
2023-10-26T06:27:30.872Z,95.66
2023-10-26T06:28:31.122Z,95.76
2023-10-26T06:29:31.429Z,95.76
2023-10-26T06:30:31.752Z,95.66
2023-10-26T06:31:32.018Z,95.66
2023-10-26T06:32:32.243Z,95.56
2023-10-26T06:33:32.492Z,95.66
2023-10-26T06:34:32.760Z,95.66
2023-10-26T06:35:32.994Z,95.66
2023-10-26T06:36:33.323Z,95.76
2023-10-26T06:37:33.539Z,95.66
2023-10-26T06:38:33.818Z,95.66
2023-10-26T06:39:34.127Z,95.66
2023-10-26T06:40:34.315Z,95.66
2023-10-26T06:41:34.589Z,95.66
2023-10-26T06:42:34.898Z,95.66
2023-10-26T06:43:35.151Z,95.76
2023-10-26T06:44:35.412Z,95.76
2023-10-26T06:45:35.679Z,95.56
2023-10-26T06:46:35.960Z,95.56
2023-10-26T06:47:36.191Z,95.46
2023-10-26T06:48:36.505Z,95.46
2023-10-26T06:49:36.757Z,95.46
2023-10-26T06:50:37.086Z,95.46
2023-10-26T06:51:37.348Z,95.46
2023-10-26T06:52:37.568Z,95.41
2023-10-26T06:53:37.880Z,95.31
2023-10-26T06:54:40.457Z,95.31
2023-10-26T06:55:38.458Z,95.21
2023-10-26T06:56:38.752Z,95.21
2023-10-26T06:57:39.129Z,95.10
2023-10-26T06:58:39.294Z,95.10
2023-10-26T06:59:39.587Z,95.10
2023-10-26T07:00:52.197Z,95.10
2023-10-26T07:05:39.585Z,95.21
2023-10-26T07:06:39.773Z,95.21
2023-10-26T07:07:40.153Z,95.21
2023-10-26T07:08:40.249Z,95.10
2023-10-26T07:09:40.520Z,95.10
2023-10-26T07:10:40.788Z,95.00
2023-10-26T07:11:41.101Z,95.10
2023-10-26T07:12:41.390Z,95.10
2023-10-26T07:13:41.706Z,95.06
2023-10-26T07:14:42.142Z,95.06
2023-10-26T07:15:42.295Z,94.96
2023-10-26T07:16:42.590Z,94.85
2023-10-26T07:17:42.923Z,94.96
2023-10-26T07:18:43.229Z,94.96
2023-10-26T07:19:43.495Z,94.96
2023-10-26T07:20:43.730Z,94.85
2023-10-26T07:21:44.072Z,94.75
2023-10-26T07:22:44.288Z,94.75
2023-10-26T07:23:44.549Z,94.75
2023-10-26T07:24:45.062Z,94.75
2023-10-26T07:25:45.094Z,94.75
2023-10-26T07:26:45.410Z,94.75
2023-10-26T07:27:45.688Z,94.75
2023-10-26T07:28:45.921Z,94.75
2023-10-26T07:29:46.190Z,94.75
2023-10-26T07:30:46.463Z,94.65
2023-10-26T07:31:47.994Z,94.65
2023-10-26T07:32:47.114Z,94.55
2023-10-26T07:33:47.401Z,94.55
2023-10-26T07:34:47.623Z,94.55
2023-10-26T07:35:47.919Z,94.55
2023-10-26T07:36:48.178Z,94.55
2023-10-26T07:37:57.948Z,94.51
2023-10-26T07:39:46.425Z,94.51
2023-10-26T07:39:49.989Z,94.60
2023-10-26T07:40:49.335Z,94.51
2023-10-26T07:42:08.094Z,94.51
2023-10-26T07:42:50.877Z,94.51
2023-10-26T07:43:50.169Z,94.51
2023-10-26T07:44:50.452Z,94.55
2023-10-26T07:45:50.804Z,94.51
2023-10-26T07:46:51.009Z,94.55
2023-10-26T07:47:51.289Z,94.65
2023-10-26T07:48:51.547Z,94.65
2023-10-26T07:49:51.809Z,94.65
2023-10-26T07:50:52.104Z,94.75
2023-10-26T07:51:52.294Z,94.75
2023-10-26T07:52:52.542Z,94.75
2023-10-26T07:53:52.833Z,94.75
2023-10-26T07:54:53.126Z,94.65
2023-10-26T07:55:53.365Z,94.55
2023-10-26T07:56:53.607Z,94.55
2023-10-26T07:57:53.845Z,94.55
2023-10-26T07:58:54.234Z,94.55
2023-10-26T07:59:54.380Z,94.55
2023-10-26T08:00:54.625Z,94.55
2023-10-26T08:01:54.976Z,94.55
2023-10-26T08:02:55.268Z,94.55
2023-10-26T08:03:55.515Z,94.55
2023-10-26T08:04:55.873Z,94.65
2023-10-26T08:05:56.085Z,94.55
2023-10-26T08:06:56.432Z,94.65
2023-10-26T08:07:56.742Z,94.65
2023-10-26T08:08:56.940Z,94.55
2023-10-26T08:09:57.184Z,94.55
2023-10-26T08:10:57.577Z,94.55
2023-10-26T08:11:57.796Z,94.55
2023-10-26T08:12:58.125Z,94.65
2023-10-26T08:13:58.542Z,94.55
2023-10-26T08:16:11.453Z,94.55
2023-10-26T08:16:11.629Z,94.55
2023-10-26T08:17:00.689Z,94.55
2023-10-26T08:17:59.892Z,94.55
2023-10-26T08:19:00.069Z,94.65
2023-10-26T08:20:01.145Z,94.55
2023-10-26T08:21:00.607Z,94.65
2023-10-26T08:22:00.862Z,94.65
2023-10-26T08:23:01.165Z,94.65
2023-10-26T08:24:01.371Z,94.55
2023-10-26T08:25:01.672Z,94.55
2023-10-26T08:26:02.060Z,94.55
2023-10-26T08:27:03.179Z,94.55
2023-10-26T08:28:02.537Z,94.55
2023-10-26T08:29:13.717Z,94.51
2023-10-26T08:30:04.091Z,94.51
2023-10-26T08:31:03.373Z,94.51
2023-10-26T08:32:03.710Z,94.51
2023-10-26T08:33:04.113Z,94.40
2023-10-26T08:34:04.274Z,94.30
2023-10-26T08:35:04.600Z,94.20
2023-10-26T08:36:04.860Z,94.20
2023-10-26T08:38:05.430Z,94.20
2023-10-26T08:39:05.663Z,93.99
2023-10-26T08:40:06.062Z,93.99
2023-10-26T08:41:06.360Z,93.99
2023-10-26T08:42:06.608Z,93.99
2023-10-26T08:43:06.844Z,93.89
2023-10-26T08:44:07.079Z,93.89
2023-10-26T08:45:07.349Z,93.89
2023-10-26T08:46:07.645Z,93.89
2023-10-26T08:47:08.007Z,93.89
2023-10-26T08:48:08.103Z,93.79
2023-10-26T08:49:08.441Z,93.79
2023-10-26T08:50:16.139Z,93.79
2023-10-26T08:51:09.987Z,93.79
2023-10-26T08:52:09.318Z,93.69
2023-10-26T08:53:09.537Z,93.59
2023-10-26T08:54:09.757Z,93.48
2023-10-26T08:55:10.173Z,93.28
2023-10-26T08:56:10.423Z,93.28
2023-10-26T08:57:10.614Z,93.07
2023-10-26T08:58:10.996Z,93.07
2023-10-26T08:59:11.252Z,92.97
2023-10-26T09:00:11.558Z,92.97
2023-10-26T09:01:11.798Z,92.97
2023-10-26T09:02:12.135Z,93.07
2023-10-26T09:03:12.433Z,93.18
2023-10-26T09:04:12.756Z,93.07
2023-10-26T09:05:12.979Z,92.97
2023-10-26T09:06:13.225Z,92.87
2023-10-26T09:07:13.429Z,92.66
2023-10-26T09:08:13.640Z,92.87
2023-10-26T09:09:14.015Z,92.77
2023-10-26T09:10:14.227Z,92.87
2023-10-26T09:11:14.569Z,92.87
2023-10-26T09:12:14.956Z,92.87
2023-10-26T09:13:15.257Z,92.87
2023-10-26T09:14:15.500Z,92.87
2023-10-26T09:15:15.736Z,92.97
2023-10-26T09:16:16.041Z,92.97
2023-10-26T09:17:16.361Z,93.07
2023-10-26T09:18:16.628Z,93.07
2023-10-26T09:19:16.777Z,92.97
2023-10-26T09:20:17.008Z,93.07
2023-10-26T09:21:17.299Z,93.18
2023-10-26T09:22:17.542Z,93.18
2023-10-26T09:23:17.818Z,93.07
2023-10-26T09:24:18.099Z,93.01
2023-10-26T09:25:18.329Z,93.12
2023-10-26T09:26:18.590Z,93.01
2023-10-26T09:27:18.875Z,93.12
2023-10-26T09:28:19.240Z,93.22
2023-10-26T09:29:19.393Z,93.28
2023-10-26T09:30:19.645Z,93.28
2023-10-26T09:31:20.081Z,93.28
2023-10-26T09:32:20.269Z,93.18
2023-10-26T09:33:20.481Z,92.97
2023-10-26T09:34:20.733Z,92.87
2023-10-26T09:35:21.085Z,92.97
2023-10-26T09:36:21.451Z,92.87
2023-10-26T09:37:21.613Z,92.87
2023-10-26T09:38:21.883Z,92.87
2023-10-26T09:39:22.124Z,92.77
2023-10-26T09:40:22.381Z,92.66
2023-10-26T09:41:22.652Z,92.77
2023-10-26T09:42:22.895Z,92.87
2023-10-26T09:43:23.200Z,92.87
2023-10-26T09:44:23.413Z,92.87
2023-10-26T09:45:23.679Z,92.77
2023-10-26T09:46:23.955Z,92.66
2023-10-26T09:47:26.142Z,92.56
2023-10-26T09:48:24.585Z,92.46
2023-10-26T09:49:24.848Z,92.36
2023-10-26T09:50:25.194Z,92.46
2023-10-26T09:51:25.430Z,92.56
2023-10-26T09:52:25.822Z,92.66
2023-10-26T09:53:25.916Z,92.77
2023-10-26T09:54:26.133Z,92.66
2023-10-26T09:55:26.428Z,92.77
2023-10-26T09:56:26.698Z,92.56
2023-10-26T09:57:26.911Z,92.56
2023-10-26T09:58:27.142Z,92.56
2023-10-26T09:59:27.361Z,92.46
2023-10-26T10:00:27.791Z,92.36
2023-10-26T10:01:28.028Z,92.46
2023-10-26T10:02:28.246Z,92.25
2023-10-26T10:03:28.607Z,92.15
2023-10-26T10:04:28.836Z,92.36
2023-10-26T10:05:29.056Z,92.25
2023-10-26T10:06:29.344Z,92.46
2023-10-26T10:07:29.539Z,92.36
2023-10-26T10:08:29.875Z,92.46
2023-10-26T10:09:30.245Z,92.56
2023-10-26T10:10:30.580Z,92.56
2023-10-26T10:11:30.979Z,92.66
2023-10-26T10:12:31.224Z,92.87
2023-10-26T10:13:31.543Z,92.77
2023-10-26T10:14:31.796Z,92.77
2023-10-26T10:16:32.366Z,92.77
2023-10-26T10:17:32.612Z,92.77
2023-10-26T10:18:32.943Z,92.87
2023-10-26T10:19:34.466Z,93.07
2023-10-26T10:20:33.477Z,92.97
2023-10-26T10:21:33.688Z,92.87
2023-10-26T10:22:33.925Z,92.77
2023-10-26T10:23:34.264Z,92.71
2023-10-26T10:24:34.576Z,92.60
2023-10-26T10:25:34.766Z,92.50
2023-10-26T10:26:34.996Z,92.50
2023-10-26T10:27:35.255Z,92.71
2023-10-26T10:28:35.452Z,92.50
2023-10-26T10:29:35.734Z,92.60
2023-10-26T10:30:36.010Z,92.71
2023-10-26T10:31:36.195Z,92.71
2023-10-26T10:32:36.515Z,92.60
2023-10-26T10:33:36.835Z,92.60
2023-10-26T10:34:36.964Z,92.71
2023-10-26T10:35:37.226Z,92.60
2023-10-26T10:36:37.487Z,92.60
2023-10-26T10:37:37.708Z,92.71
2023-10-26T10:38:37.975Z,92.81
2023-10-26T10:39:38.228Z,92.60
2023-10-26T10:40:38.486Z,92.60
2023-10-26T10:41:38.746Z,92.50
2023-10-26T10:42:39.038Z,92.50
2023-10-26T10:43:39.320Z,92.60
2023-10-26T10:44:40.820Z,92.81
2023-10-26T10:45:39.859Z,92.81
2023-10-26T10:46:40.164Z,92.77
2023-10-26T10:47:40.376Z,92.66
2023-10-26T10:48:40.651Z,92.56
2023-10-26T10:49:40.889Z,92.46
2023-10-26T10:50:41.126Z,92.46
2023-10-26T10:51:41.401Z,92.50
2023-10-26T10:52:41.656Z,92.40
2023-10-26T10:53:41.964Z,92.56
2023-10-26T10:54:53.468Z,92.40
2023-10-26T10:55:44.775Z,92.50
2023-10-26T10:56:42.832Z,92.50
2023-10-26T10:57:43.165Z,92.30
2023-10-26T10:58:43.342Z,92.40
2023-10-26T10:59:43.595Z,92.50
2023-10-26T11:00:43.858Z,92.60
2023-10-26T11:01:44.155Z,92.71
2023-10-26T11:02:44.419Z,92.71
2023-10-26T11:03:44.820Z,92.50
2023-10-26T11:04:55.374Z,92.40
2023-10-26T11:05:46.236Z,92.50
2023-10-26T11:06:45.556Z,92.60
2023-10-26T11:07:45.915Z,92.50
2023-10-26T11:08:46.164Z,92.60
2023-10-26T11:09:46.439Z,92.71
2023-10-26T11:10:46.642Z,92.71
2023-10-26T11:11:46.872Z,92.71
2023-10-26T11:12:47.184Z,92.50
2023-10-26T11:13:47.357Z,92.36
2023-10-26T11:14:47.607Z,92.40
2023-10-26T11:15:47.850Z,92.19
2023-10-26T11:16:48.163Z,92.36
2023-10-26T11:17:48.419Z,92.46
2023-10-26T11:18:48.695Z,92.46
2023-10-26T11:19:48.894Z,92.46
2023-10-26T11:20:49.124Z,92.05
2023-10-26T11:21:49.526Z,91.95
2023-10-26T11:22:49.603Z,92.05
2023-10-26T11:23:49.815Z,92.15
2023-10-26T11:24:50.211Z,92.25
2023-10-26T11:25:50.418Z,92.36
2023-10-26T11:26:50.700Z,92.25
2023-10-26T11:27:50.975Z,92.15
2023-10-26T11:28:51.246Z,92.15
2023-10-26T11:29:51.543Z,92.05
2023-10-26T11:30:52.002Z,91.95
2023-10-26T11:31:52.266Z,92.01
2023-10-26T11:32:53.477Z,92.01
2023-10-26T11:33:52.703Z,91.54
2023-10-26T11:34:52.922Z,91.54
2023-10-26T11:35:53.210Z,91.64
2023-10-26T11:36:53.489Z,91.33
2023-10-26T11:37:53.684Z,91.33
2023-10-26T11:38:53.944Z,91.54
2023-10-26T11:39:54.250Z,91.54
2023-10-26T11:40:54.474Z,91.54
2023-10-26T11:41:54.744Z,91.54
2023-10-26T11:43:18.341Z,91.64
2023-10-26T11:43:58.300Z,91.70
2023-10-26T11:45:17.253Z,91.70
2023-10-26T11:45:55.854Z,91.60
2023-10-26T11:46:56.030Z,91.60
2023-10-26T11:47:56.228Z,91.70
2023-10-26T11:48:56.485Z,91.80
2023-10-26T11:49:56.749Z,91.70
2023-10-26T11:50:56.998Z,91.50
2023-10-26T11:52:00.282Z,91.29
2023-10-26T11:52:57.623Z,91.29
2023-10-26T11:53:57.952Z,91.19
2023-10-26T11:54:58.323Z,90.78
2023-10-26T11:55:58.518Z,90.68
2023-10-26T11:56:58.788Z,90.68
2023-10-26T11:57:59.099Z,90.99
2023-10-26T11:58:59.293Z,90.88
2023-10-26T11:59:59.661Z,90.88
2023-10-26T12:00:59.929Z,90.68
2023-10-26T12:02:00.178Z,90.47
2023-10-26T12:03:00.545Z,90.68
2023-10-26T12:04:00.873Z,90.68
2023-10-26T12:05:00.974Z,90.88
2023-10-26T12:06:01.182Z,90.99
2023-10-26T12:07:01.476Z,91.09
2023-10-26T12:08:01.676Z,91.29
2023-10-26T12:09:02.032Z,91.39
2023-10-26T12:10:02.278Z,91.09
2023-10-26T12:11:02.503Z,90.78
2023-10-26T12:12:02.737Z,90.58
2023-10-26T12:13:03.104Z,90.47
2023-10-26T12:14:03.358Z,90.47
2023-10-26T12:15:03.601Z,90.37
2023-10-26T12:16:03.927Z,90.47
2023-10-26T12:17:04.206Z,90.58
2023-10-26T12:18:04.499Z,90.68
2023-10-26T12:19:04.706Z,90.58
2023-10-26T12:20:04.978Z,90.68
2023-10-26T12:21:05.205Z,90.78
2023-10-26T12:22:05.500Z,90.99
2023-10-26T12:23:05.689Z,90.88
2023-10-26T12:24:05.960Z,90.99
2023-10-26T12:25:06.201Z,90.99
2023-10-26T12:26:06.521Z,91.09
2023-10-26T12:27:06.729Z,90.99
2023-10-26T12:28:19.152Z,90.78
2023-10-26T12:29:08.188Z,90.88
2023-10-26T12:30:07.477Z,90.99
2023-10-26T12:31:07.748Z,90.99
2023-10-26T12:32:08.087Z,90.99
2023-10-26T12:33:08.399Z,91.19
2023-10-26T12:34:08.642Z,91.09
2023-10-26T12:35:08.877Z,90.84
2023-10-26T12:36:09.247Z,90.68
2023-10-26T12:37:09.441Z,90.47
2023-10-26T12:38:09.670Z,90.58
2023-10-26T12:39:09.926Z,90.58
2023-10-26T12:40:10.120Z,90.47
2023-10-26T12:41:10.454Z,90.27
2023-10-26T12:42:10.850Z,90.37
2023-10-26T12:43:11.104Z,90.47
2023-10-26T12:44:11.295Z,90.58
2023-10-26T12:45:11.562Z,90.47
2023-10-26T12:46:11.842Z,90.27
2023-10-26T12:47:12.092Z,90.27
2023-10-26T12:48:12.323Z,90.17
2023-10-26T12:49:12.652Z,90.27
2023-10-26T12:50:13.010Z,90.47
2023-10-26T12:51:13.376Z,90.58
2023-10-26T12:52:13.636Z,90.58
2023-10-26T12:53:13.943Z,90.47
2023-10-26T12:54:14.121Z,90.47
2023-10-26T12:55:14.491Z,90.58
2023-10-26T12:56:14.737Z,90.78
2023-10-26T12:57:14.964Z,90.99
2023-10-26T12:58:15.178Z,90.99
2023-10-26T12:59:15.526Z,91.09
2023-10-26T13:00:15.962Z,91.19
2023-10-26T13:01:16.206Z,91.19
2023-10-26T13:02:16.446Z,91.19